createdAt,value
2019-01-29T00:01:21.081Z,1.50
2019-01-29T00:03:50.105Z,1.50
2019-01-29T00:06:19.092Z,1.50
2019-01-29T00:08:48.096Z,1.50
2019-01-29T00:11:17.162Z,1.50
2019-01-29T00:13:46.131Z,1.50
2019-01-29T00:16:15.064Z,1.50
2019-01-29T00:18:44.103Z,1.60
2019-01-29T00:21:13.166Z,1.70
2019-01-29T00:23:42.205Z,1.70
2019-01-29T00:26:11.213Z,1.60
2019-01-29T00:28:40.205Z,1.60
2019-01-29T00:31:09.333Z,1.60
2019-01-29T00:33:38.333Z,1.60
2019-01-29T00:36:07.433Z,1.60
2019-01-29T00:38:36.445Z,1.60
2019-01-29T00:41:05.406Z,1.60
2019-01-29T00:43:34.452Z,1.60
2019-01-29T00:46:03.444Z,1.50
2019-01-29T00:48:32.948Z,1.60
2019-01-29T00:51:02.049Z,1.50
2019-01-29T00:53:30.996Z,1.60
2019-01-29T00:56:00.112Z,1.50
2019-01-29T00:58:29.009Z,1.50
2019-01-29T01:00:57.979Z,1.50
2019-01-29T01:03:27.200Z,1.40
2019-01-29T01:05:56.260Z,1.30
2019-01-29T01:08:25.308Z,1.40
2019-01-29T01:10:54.389Z,1.40
2019-01-29T01:13:23.469Z,1.40
2019-01-29T01:15:52.580Z,1.40
2019-01-29T01:18:21.740Z,1.40
2019-01-29T01:20:50.779Z,1.50
2019-01-29T01:23:19.802Z,1.60
2019-01-29T01:25:48.844Z,1.50
2019-01-29T01:28:17.878Z,1.60
2019-01-29T01:30:46.758Z,1.50
2019-01-29T01:33:15.737Z,1.50
2019-01-29T01:35:44.717Z,1.50
2019-01-29T01:38:13.816Z,1.50
2019-01-29T01:40:42.792Z,1.50
2019-01-29T01:43:11.773Z,1.50
2019-01-29T01:45:41.056Z,1.50
2019-01-29T01:48:10.024Z,1.50
2019-01-29T01:50:39.005Z,1.60
2019-01-29T01:53:08.169Z,1.60
2019-01-29T01:55:37.132Z,1.60
2019-01-29T01:58:06.238Z,1.60
2019-01-29T02:00:35.054Z,1.60
2019-01-29T02:03:04.136Z,1.60
2019-01-29T02:05:33.170Z,1.70
2019-01-29T02:08:02.196Z,1.70
2019-01-29T02:10:33.053Z,1.70
2019-01-29T02:13:02.095Z,1.70
2019-01-29T02:15:31.045Z,1.60
2019-01-29T02:18:00.031Z,1.70
2019-01-29T02:20:29.017Z,1.70
2019-01-29T02:22:58.700Z,1.70
2019-01-29T02:25:27.597Z,1.70
2019-01-29T02:27:56.497Z,1.70
2019-01-29T02:30:25.849Z,1.70
2019-01-29T02:32:54.913Z,1.70
2019-01-29T02:35:23.969Z,2.60
2019-01-29T02:37:52.956Z,1.70
2019-01-29T02:40:26.412Z,1.70
2019-01-29T02:42:55.397Z,1.70
2019-01-29T02:45:24.786Z,1.70
2019-01-29T02:47:53.760Z,1.70
2019-01-29T02:50:22.953Z,1.70
2019-01-29T02:52:51.981Z,1.70
2019-01-29T02:55:21.109Z,1.70
2019-01-29T02:57:50.080Z,1.70
2019-01-29T03:00:22.909Z,1.70
2019-01-29T03:02:51.916Z,1.70
2019-01-29T03:05:20.970Z,1.70
2019-01-29T03:07:50.007Z,1.70
2019-01-29T03:10:22.492Z,1.70
2019-01-29T03:12:51.549Z,1.70
2019-01-29T03:15:28.899Z,1.70
2019-01-29T03:17:57.965Z,1.60
2019-01-29T03:20:27.042Z,1.60
2019-01-29T03:22:56.105Z,1.60
2019-01-29T03:25:25.124Z,1.50
2019-01-29T03:27:54.058Z,1.50
2019-01-29T03:30:23.138Z,1.50
2019-01-29T03:32:52.119Z,1.50
2019-01-29T03:35:21.086Z,1.50
2019-01-29T03:37:50.213Z,1.40
2019-01-29T03:40:21.917Z,1.40
2019-01-29T03:42:50.882Z,1.50
2019-01-29T03:45:19.986Z,1.40
2019-01-29T03:47:48.936Z,1.40
2019-01-29T03:50:19.769Z,1.40
2019-01-29T03:52:48.851Z,1.40
2019-01-29T03:55:18.081Z,1.30
2019-01-29T03:57:47.045Z,1.40
2019-01-29T04:00:25.293Z,1.30
2019-01-29T04:02:54.276Z,1.40
2019-01-29T04:05:23.304Z,1.20
2019-01-29T04:07:52.277Z,1.20
2019-01-29T04:10:21.309Z,1.20
2019-01-29T04:12:50.482Z,1.20
2019-01-29T04:15:20.224Z,1.10
2019-01-29T04:17:49.192Z,1.10
2019-01-29T04:20:20.746Z,1.10
2019-01-29T04:22:49.619Z,1.20
2019-01-29T04:25:18.539Z,1.10
2019-01-29T04:27:47.634Z,1.20
2019-01-29T04:30:18.426Z,1.20
2019-01-29T04:32:47.486Z,1.20
2019-01-29T04:35:16.408Z,1.10
2019-01-29T04:37:45.472Z,1.10
2019-01-29T04:40:17.737Z,1.10
2019-01-29T04:42:47.087Z,1.10
2019-01-29T04:45:16.724Z,1.10
2019-01-29T04:47:45.871Z,1.10
2019-01-29T04:50:16.992Z,1.20
2019-01-29T04:52:46.069Z,1.10
2019-01-29T04:55:15.521Z,1.20
2019-01-29T04:57:44.541Z,1.20
2019-01-29T05:00:20.492Z,1.20
2019-01-29T05:02:49.619Z,1.20
2019-01-29T05:05:19.132Z,1.20
2019-01-29T05:07:48.141Z,1.20
2019-01-29T05:10:17.357Z,1.20
2019-01-29T05:12:46.362Z,1.20
2019-01-29T05:15:15.922Z,1.20
2019-01-29T05:17:44.937Z,1.30
2019-01-29T05:20:18.589Z,1.30
2019-01-29T05:22:47.561Z,1.30
2019-01-29T05:25:16.944Z,1.20
2019-01-29T05:27:46.021Z,1.20
2019-01-29T05:30:17.432Z,1.30
2019-01-29T05:32:46.423Z,1.40
2019-01-29T05:35:15.533Z,1.40
2019-01-29T05:37:44.492Z,1.40
2019-01-29T05:40:15.280Z,1.50
2019-01-29T05:42:44.376Z,1.50
2019-01-29T05:45:14.978Z,1.40
2019-01-29T05:47:43.884Z,1.50
2019-01-29T05:50:13.311Z,1.40
2019-01-29T05:52:42.309Z,1.50
2019-01-29T05:55:11.409Z,1.50
2019-01-29T05:57:40.522Z,1.50
2019-01-29T06:00:14.624Z,1.50
2019-01-29T06:02:43.692Z,1.40
2019-01-29T06:05:12.641Z,1.60
2019-01-29T06:07:41.700Z,1.60
2019-01-29T06:10:11.041Z,1.50
2019-01-29T06:12:39.992Z,1.60
2019-01-29T06:27:47.608Z,1.60
2019-01-29T06:30:28.184Z,1.50
2019-01-29T06:33:08.862Z,1.60
2019-01-29T06:35:49.649Z,1.60
2019-01-29T06:38:30.574Z,1.60
2019-01-29T06:41:11.998Z,1.60
2019-01-29T06:43:52.604Z,1.60
2019-01-29T06:46:33.460Z,1.60
2019-01-29T06:49:13.977Z,1.60
2019-01-29T06:51:55.289Z,1.60
2019-01-29T06:54:36.506Z,1.70
2019-01-29T06:57:17.263Z,1.70
2019-01-29T06:59:56.567Z,1.70
2019-01-29T07:08:33.244Z,1.60
2019-01-29T07:11:21.385Z,1.60
2019-01-29T07:14:09.580Z,1.60
2019-01-29T07:17:16.785Z,1.60
2019-01-29T07:20:00.373Z,1.70
2019-01-29T07:22:41.220Z,1.80
2019-01-29T07:25:22.022Z,1.70
2019-01-29T07:28:03.298Z,1.70
2019-01-29T07:30:43.926Z,1.70
2019-01-29T07:33:24.469Z,1.80
2019-01-29T07:36:05.267Z,1.80
2019-01-29T07:38:46.556Z,1.70
2019-01-29T07:41:27.955Z,1.70
2019-01-29T07:44:09.370Z,1.70
2019-01-29T07:46:50.597Z,1.70
2019-01-29T07:49:31.085Z,1.70
2019-01-29T07:52:12.920Z,1.70
2019-01-29T07:54:53.447Z,1.80
2019-01-29T07:57:33.980Z,1.90
2019-01-29T08:00:13.913Z,1.90
2019-01-29T08:18:06.443Z,2.10
2019-01-29T08:20:47.829Z,2.00
2019-01-29T08:23:29.003Z,2.10
2019-01-29T08:26:09.882Z,2.20
2019-01-29T08:28:55.619Z,2.30
2019-01-29T08:31:43.161Z,2.30
2019-01-29T08:34:25.591Z,2.00
2019-01-29T08:37:11.677Z,2.00
2019-01-29T08:40:00.201Z,2.00
2019-01-29T08:42:43.327Z,2.00
2019-01-29T08:45:24.384Z,1.90
2019-01-29T08:48:05.111Z,1.90
2019-01-29T08:50:45.624Z,2.00
2019-01-29T08:53:26.665Z,1.90
2019-01-29T08:56:07.397Z,1.80
2019-01-29T08:58:48.729Z,1.70
2019-01-29T09:01:29.309Z,1.80
2019-01-29T09:04:09.937Z,1.90
2019-01-29T09:06:51.184Z,1.90
2019-01-29T09:09:31.984Z,3.00
2019-01-29T09:12:12.761Z,1.80
2019-01-29T09:14:54.041Z,1.80
2019-01-29T09:17:35.429Z,1.90
2019-01-29T09:20:16.336Z,1.90
2019-01-29T09:22:57.611Z,2.00
2019-01-29T09:25:38.598Z,1.90
2019-01-29T09:28:19.198Z,2.00
2019-01-29T09:31:00.025Z,2.00
2019-01-29T09:33:41.067Z,2.00
2019-01-29T09:36:21.604Z,2.10
2019-01-29T09:39:03.866Z,2.20
2019-01-29T09:41:43.149Z,2.10
2019-01-29T09:44:23.784Z,2.20
2019-01-29T09:47:04.584Z,2.40
2019-01-29T09:49:45.300Z,2.40
2019-01-29T09:52:26.177Z,2.30
2019-01-29T09:55:07.522Z,2.50
2019-01-29T09:57:48.272Z,2.50
2019-01-29T10:00:31.674Z,2.50
2019-01-29T10:03:19.865Z,2.70
2019-01-29T10:06:08.071Z,2.80
2019-01-29T10:08:56.232Z,2.80
2019-01-29T10:11:44.363Z,3.00
2019-01-29T10:14:32.658Z,2.90
2019-01-29T10:20:29.790Z,3.30
2019-01-29T10:23:17.950Z,3.00
2019-01-29T10:26:06.075Z,3.20
2019-01-29T10:28:54.338Z,3.60
2019-01-29T10:31:42.552Z,4.00
2019-01-29T10:34:30.765Z,4.20
2019-01-29T10:37:18.892Z,4.30
2019-01-29T10:45:48.095Z,5.70
2019-01-29T10:48:28.862Z,6.20
2019-01-29T10:51:09.876Z,5.90
2019-01-29T10:53:50.537Z,5.90
2019-01-29T10:56:31.210Z,5.40
2019-01-29T10:59:12.185Z,4.90
2019-01-29T11:01:53.169Z,4.70
2019-01-29T11:04:33.776Z,4.50
2019-01-29T11:07:13.164Z,4.10
2019-01-29T11:10:01.480Z,3.80
2019-01-29T11:12:51.285Z,3.80
2019-01-29T11:24:42.175Z,3.80
2019-01-29T11:30:37.725Z,3.90
2019-01-29T11:36:33.274Z,4.40
2019-01-29T11:42:15.647Z,4.10
2019-01-29T11:44:56.465Z,3.90
2019-01-29T11:47:36.945Z,4.00
2019-01-29T11:50:18.464Z,4.10
2019-01-29T11:52:59.472Z,3.80
2019-01-29T11:55:40.186Z,4.10
2019-01-29T11:58:20.997Z,3.90
2019-01-29T12:04:00.366Z,4.00
2019-01-29T12:06:41.497Z,4.10
2019-01-29T12:09:22.348Z,4.40
2019-01-29T12:12:03.398Z,4.30
2019-01-29T12:14:43.974Z,4.20
2019-01-29T12:17:25.293Z,4.40
2019-01-29T12:20:06.646Z,4.10
2019-01-29T12:22:47.902Z,3.70
2019-01-29T12:25:28.454Z,4.10
2019-01-29T12:28:09.052Z,3.70
2019-01-29T12:30:49.569Z,3.90
2019-01-29T12:33:30.737Z,4.30
2019-01-29T12:36:11.272Z,5.90
2019-01-29T12:38:51.870Z,4.60
2019-01-29T12:41:32.751Z,4.70
2019-01-29T12:44:13.400Z,4.80
2019-01-29T12:46:54.334Z,4.90
2019-01-29T12:49:34.945Z,4.40
2019-01-29T12:52:35.311Z,4.60
2019-01-29T12:55:16.730Z,4.70
2019-01-29T12:57:57.420Z,4.60
2019-01-29T13:03:34.452Z,4.20
2019-01-29T13:06:15.693Z,4.50
2019-01-29T13:08:56.164Z,4.80
2019-01-29T13:11:35.645Z,4.40
2019-01-29T13:14:23.850Z,4.60
2019-01-29T13:23:12.946Z,4.90
2019-01-29T13:37:50.089Z,4.60
2019-01-29T13:43:45.578Z,5.30
2019-01-29T13:46:26.841Z,5.40
2019-01-29T13:49:07.388Z,6.20
2019-01-29T13:51:48.748Z,6.20
2019-01-29T13:54:29.377Z,6.20
2019-01-29T13:57:10.393Z,6.30
2019-01-29T13:59:51.704Z,5.70
2019-01-29T14:02:32.441Z,5.40
2019-01-29T14:05:13.128Z,5.00
2019-01-29T14:07:54.339Z,5.40
2019-01-29T14:10:36.560Z,5.00
2019-01-29T14:13:17.076Z,5.10
2019-01-29T14:15:59.685Z,5.70
2019-01-29T14:18:47.857Z,6.10
2019-01-29T14:39:22.417Z,5.70
2019-01-29T14:42:10.746Z,5.20
2019-01-29T14:47:45.606Z,5.30
2019-01-29T14:50:26.353Z,5.30
2019-01-29T14:53:06.895Z,5.20
2019-01-29T14:55:48.255Z,5.20
2019-01-29T14:58:29.598Z,4.80
2019-01-29T15:01:10.881Z,4.50
2019-01-29T15:03:51.919Z,4.70
2019-01-29T15:06:33.045Z,4.60
2019-01-29T15:09:14.534Z,4.80
2019-01-29T15:11:55.701Z,4.80
2019-01-29T15:14:36.424Z,4.60
2019-01-29T15:20:29.957Z,4.60
2019-01-29T15:23:10.955Z,4.60
2019-01-29T15:25:51.604Z,4.40
2019-01-29T15:28:32.233Z,4.10
2019-01-29T15:31:13.147Z,3.90
2019-01-29T15:33:54.396Z,3.60
2019-01-29T15:36:35.724Z,3.60
2019-01-29T15:39:16.676Z,3.60
2019-01-29T15:41:57.169Z,3.80
2019-01-29T15:44:38.574Z,4.00
2019-01-29T15:47:19.524Z,4.00
2019-01-29T15:50:00.270Z,3.90
2019-01-29T15:52:48.271Z,3.80
2019-01-29T15:55:29.832Z,3.70
2019-01-29T16:01:11.824Z,3.70
2019-01-29T16:10:01.486Z,3.50
2019-01-29T16:21:38.205Z,3.40
2019-01-29T16:24:18.901Z,3.30
2019-01-29T16:27:06.675Z,5.10
2019-01-29T16:29:42.657Z,3.00
2019-01-29T16:32:23.758Z,2.80
2019-01-29T16:35:02.933Z,2.80
2019-01-29T16:40:44.810Z,2.90
2019-01-29T16:43:32.963Z,2.80
2019-01-29T16:46:28.680Z,2.80
2019-01-29T16:52:10.704Z,2.60
2019-01-29T17:06:49.194Z,2.20
2019-01-29T17:09:37.368Z,2.10
2019-01-29T17:15:11.848Z,2.20
2019-01-29T17:17:52.820Z,2.20
2019-01-29T17:20:33.788Z,2.30
2019-01-29T17:23:15.269Z,2.10
2019-01-29T17:25:55.762Z,2.10
2019-01-29T17:28:37.174Z,1.90
2019-01-29T17:31:18.587Z,2.00
2019-01-29T17:33:59.967Z,1.90
2019-01-29T17:36:41.360Z,1.90
2019-01-29T17:39:22.253Z,1.80
2019-01-29T17:42:03.153Z,1.60
2019-01-29T17:44:44.553Z,1.60
2019-01-29T17:47:35.861Z,1.70
2019-01-29T17:50:16.684Z,1.80
2019-01-29T17:52:58.145Z,1.70
2019-01-29T17:55:39.297Z,1.70
2019-01-29T17:58:20.308Z,1.80
2019-01-29T18:01:02.650Z,1.70
2019-01-29T18:03:44.103Z,1.70
2019-01-29T18:06:24.921Z,1.70
2019-01-29T18:09:07.351Z,-0.90
2019-01-29T18:11:48.036Z,1.60
2019-01-29T18:14:28.799Z,1.60
2019-01-29T18:17:09.766Z,1.60
2019-01-29T18:19:50.844Z,1.50
2019-01-29T18:22:31.361Z,1.50
2019-01-29T18:25:10.882Z,1.50
2019-01-29T18:28:01.221Z,1.50
2019-01-29T18:30:49.041Z,1.40
2019-01-29T18:45:25.617Z,1.30
2019-01-29T18:48:13.835Z,1.30
2019-01-29T18:51:02.089Z,1.30
2019-01-29T18:53:50.395Z,1.20
2019-01-29T18:56:38.614Z,1.10
2019-01-29T19:02:02.049Z,1.00
2019-01-29T19:04:31.050Z,1.00
2019-01-29T19:07:00.150Z,1.00
2019-01-29T19:09:29.420Z,1.00
2019-01-29T19:11:58.462Z,1.00
2019-01-29T19:14:27.609Z,0.90
2019-01-29T19:16:56.914Z,0.90
2019-01-29T19:19:26.052Z,0.90
2019-01-29T19:21:55.121Z,0.90
2019-01-29T19:24:24.260Z,0.90
2019-01-29T19:26:53.290Z,0.90
2019-01-29T19:29:22.431Z,0.90
2019-01-29T19:31:51.537Z,0.80
2019-01-29T19:34:20.812Z,0.80
2019-01-29T19:36:49.904Z,0.80
2019-01-29T19:39:18.988Z,0.80
2019-01-29T19:41:48.145Z,0.90
2019-01-29T19:44:17.223Z,0.80
2019-01-29T19:46:46.210Z,0.80
2019-01-29T19:49:15.312Z,0.80
2019-01-29T19:51:44.413Z,0.80
2019-01-29T19:54:13.537Z,0.80
2019-01-29T19:56:42.655Z,0.80
2019-01-29T19:59:11.714Z,0.80
2019-01-29T20:01:40.893Z,0.80
2019-01-29T20:04:10.005Z,0.80
2019-01-29T20:06:39.203Z,0.80
2019-01-29T20:09:12.584Z,0.80
2019-01-29T20:11:41.904Z,0.80
2019-01-29T20:14:11.016Z,0.80
2019-01-29T20:16:40.206Z,0.80
2019-01-29T20:19:09.273Z,0.80
2019-01-29T20:21:38.402Z,0.80
2019-01-29T20:24:07.590Z,0.80
2019-01-29T20:26:36.778Z,0.80
2019-01-29T20:29:05.946Z,0.80
2019-01-29T20:31:35.044Z,0.80
2019-01-29T20:34:04.161Z,0.80
2019-01-29T20:36:33.350Z,0.80
2019-01-29T20:39:02.416Z,0.80
2019-01-29T20:41:31.598Z,0.80
2019-01-29T20:44:00.578Z,0.80
2019-01-29T20:46:29.678Z,0.80
2019-01-29T20:48:59.312Z,0.80
2019-01-29T20:51:28.507Z,0.80
2019-01-29T20:53:57.536Z,0.70
2019-01-29T20:56:26.631Z,0.80
2019-01-29T20:58:55.920Z,0.80
2019-01-29T21:01:25.038Z,0.70
2019-01-29T21:03:54.089Z,0.70
2019-01-29T21:06:23.239Z,0.60
2019-01-29T21:08:52.296Z,0.60
2019-01-29T21:11:21.401Z,0.70
2019-01-29T21:13:50.582Z,0.60
2019-01-29T21:16:19.754Z,0.60
2019-01-29T21:18:48.870Z,0.60
2019-01-29T21:21:18.123Z,0.60
2019-01-29T21:23:49.055Z,0.60
2019-01-29T21:26:18.049Z,0.60
2019-01-29T21:28:47.240Z,0.60
2019-01-29T21:31:16.408Z,0.60
2019-01-29T21:33:45.453Z,0.60
2019-01-29T21:36:14.618Z,0.60
2019-01-29T21:38:43.628Z,0.50
2019-01-29T21:41:12.732Z,0.60
2019-01-29T21:43:42.020Z,0.50
2019-01-29T21:46:11.331Z,0.60
2019-01-29T21:48:40.393Z,0.60
2019-01-29T21:51:09.565Z,0.60
2019-01-29T21:53:38.686Z,0.60
2019-01-29T21:56:07.864Z,0.60
2019-01-29T21:58:36.971Z,0.50
2019-01-29T22:01:05.995Z,0.60
2019-01-29T22:03:35.081Z,0.60
2019-01-29T22:06:04.405Z,0.50
2019-01-29T22:08:33.876Z,0.60
2019-01-29T22:11:03.150Z,0.50
2019-01-29T22:13:32.201Z,0.50
2019-01-29T22:16:01.280Z,0.50
2019-01-29T22:18:30.468Z,0.50
2019-01-29T22:20:59.583Z,0.50
2019-01-29T22:23:28.615Z,0.50
2019-01-29T22:25:57.745Z,0.40
2019-01-29T22:28:26.833Z,0.40
2019-01-29T22:30:55.956Z,0.40
2019-01-29T22:33:25.029Z,0.40
2019-01-29T22:35:54.042Z,0.30
2019-01-29T22:38:23.192Z,0.40
2019-01-29T22:40:52.227Z,0.40
2019-01-29T22:43:21.444Z,0.40
2019-01-29T22:45:50.612Z,0.30
2019-01-29T22:48:19.610Z,0.30
2019-01-29T22:50:48.733Z,0.30
2019-01-29T22:53:17.650Z,0.30
2019-01-29T22:55:46.729Z,0.30
2019-01-29T22:58:15.724Z,0.30
2019-01-29T23:01:28.266Z,0.30
2019-01-29T23:04:31.044Z,0.20
2019-01-29T23:07:28.316Z,0.10
2019-01-29T23:09:57.320Z,-0.10
2019-01-29T23:12:26.285Z,-0.10
2019-01-29T23:14:56.701Z,-0.20
2019-01-29T23:17:25.882Z,-0.10
2019-01-29T23:19:55.006Z,-0.10
2019-01-29T23:24:52.759Z,0.00
2019-01-29T23:27:21.829Z,0.10
2019-01-29T23:29:50.882Z,0.10
2019-01-29T23:32:19.917Z,0.10
2019-01-29T23:34:48.967Z,0.10
2019-01-29T23:37:17.903Z,0.10
2019-01-29T23:39:46.920Z,0.10
2019-01-29T23:42:15.981Z,0.10
2019-01-29T23:44:45.092Z,0.10
2019-01-29T23:47:14.070Z,0.00
2019-01-29T23:49:43.013Z,0.10
2019-01-29T23:52:12.209Z,0.00
2019-01-29T23:54:41.292Z,-0.10
2019-01-29T23:57:10.361Z,-0.10
2019-01-29T23:59:39.409Z,0.00
